Time;durP1;ratioP1;P1;durP2;ratioP2;P2;SDS_P1;SDS_P2;PMS_P1;PMS_P2;Temp;Humidity;BMP_temperature;BMP_pressure;BME280_temperature;BME280_humidity;BME280_pressure;Samples;Min_cycle;Max_cycle;Signal;HPM_P1;HPM_P2
2023/08/08 00:01:00;;;;;;;7.23;7.00;;;13.10;99.90;;;;;;5091426;28;20461;-69
2023/08/08 00:03:27;;;;;;;6.77;6.57;;;13.00;99.90;;;;;;5100591;28;20464;-71
2023/08/08 00:05:53;;;;;;;6.90;6.67;;;13.00;99.90;;;;;;5093975;28;20469;-68
2023/08/08 00:08:20;;;;;;;6.63;6.43;;;13.00;99.90;;;;;;5095193;28;20469;-68
2023/08/08 00:10:47;;;;;;;6.57;6.37;;;13.00;99.90;;;;;;5088079;28;20461;-69
2023/08/08 00:13:15;;;;;;;7.50;7.20;;;12.90;99.90;;;;;;5102235;28;20474;-72
2023/08/08 00:15:43;;;;;;;6.50;6.30;;;12.90;99.90;;;;;;5108504;28;20473;-69
2023/08/08 00:18:10;;;;;;;5.57;5.47;;;12.90;99.90;;;;;;5097101;28;20485;-69
2023/08/08 00:20:38;;;;;;;6.80;6.60;;;12.80;99.90;;;;;;5097623;28;20490;-68
2023/08/08 00:23:05;;;;;;;12.30;6.30;;;12.90;99.90;;;;;;5097196;28;20466;-69
2023/08/08 00:25:32;;;;;;;7.30;7.00;;;12.80;99.90;;;;;;5096815;28;20995;-68
2023/08/08 00:27:59;;;;;;;6.53;6.23;;;12.80;99.90;;;;;;5101568;28;20461;-71
2023/08/08 00:30:27;;;;;;;7.50;7.23;;;12.90;99.90;;;;;;5095204;28;20442;-71
2023/08/08 00:32:53;;;;;;;6.77;6.47;;;12.80;99.90;;;;;;5092447;28;20461;-68
2023/08/08 00:35:20;;;;;;;7.53;7.23;;;12.80;99.90;;;;;;5101110;28;20454;-69
2023/08/08 00:37:48;;;;;;;6.70;6.50;;;12.80;99.90;;;;;;5091558;28;20485;-69
2023/08/08 00:40:15;;;;;;;5.90;5.70;;;12.80;99.90;;;;;;5104423;28;20457;-69
2023/08/08 00:42:42;;;;;;;6.80;6.40;;;12.80;99.90;;;;;;5095691;28;20465;-69
2023/08/08 00:45:10;;;;;;;6.40;6.20;;;12.70;99.90;;;;;;5101553;28;22246;-72
2023/08/08 00:47:38;;;;;;;7.40;6.70;;;12.70;99.90;;;;;;5098466;28;20462;-70
2023/08/08 00:50:06;;;;;;;6.30;6.10;;;12.70;99.90;;;;;;5088039;28;20499;-69
2023/08/08 00:52:34;;;;;;;5.57;5.40;;;12.70;99.90;;;;;;5089873;28;20983;-70
2023/08/08 00:55:03;;;;;;;5.67;5.47;;;12.70;99.90;;;;;;5097699;28;20465;-72
2023/08/08 00:57:30;;;;;;;5.40;5.30;;;12.70;99.90;;;;;;5103913;28;20484;-68
2023/08/08 00:59:57;;;;;;;6.20;6.00;;;12.70;99.90;;;;;;5096205;28;20496;-72
2023/08/08 01:02:24;;;;;;;5.40;5.30;;;12.70;99.90;;;;;;5091280;28;20468;-71
2023/08/08 01:04:53;;;;;;;5.63;5.43;;;12.70;99.90;;;;;;5106375;28;20456;-69
2023/08/08 01:07:29;;;;;;;5.73;5.53;;;12.70;99.90;;;;;;5101829;28;20454;-69
2023/08/08 01:10:01;;;;;;;5.97;5.77;;;12.70;99.90;;;;;;5091730;28;20477;-68
2023/08/08 01:12:29;;;;;;;6.07;5.87;;;12.70;99.90;;;;;;5087508;28;20462;-68
2023/08/08 01:14:57;;;;;;;6.63;6.23;;;12.70;99.90;;;;;;5100807;28;20441;-69
2023/08/08 01:17:25;;;;;;;6.80;6.50;;;12.70;99.90;;;;;;5102513;28;20488;-68
2023/08/08 01:19:54;;;;;;;6.67;6.37;;;12.80;99.90;;;;;;5093448;28;20472;-72
2023/08/08 01:22:26;;;;;;;5.83;5.63;;;12.80;99.90;;;;;;5097665;28;20450;-72
2023/08/08 01:24:55;;;;;;;7.20;6.90;;;12.80;99.90;;;;;;5096696;28;20470;-72
2023/08/08 01:27:23;;;;;;;5.80;5.60;;;12.80;99.90;;;;;;5097949;28;20470;-69
2023/08/08 01:29:51;;;;;;;5.60;5.40;;;12.80;99.90;;;;;;5101075;28;20546;-70
2023/08/08 01:32:18;;;;;;;6.00;5.70;;;12.80;99.90;;;;;;5092695;28;20473;-72
2023/08/08 01:34:45;;;;;;;5.80;5.60;;;12.80;99.90;;;;;;5091355;28;20446;-69
2023/08/08 01:37:18;;;;;;;5.57;5.37;;;12.80;99.90;;;;;;5099154;28;20486;-68
2023/08/08 01:39:48;;;;;;;5.30;5.20;;;12.70;99.90;;;;;;5091397;28;20476;-72
2023/08/08 01:42:18;;;;;;;7.80;5.90;;;12.70;99.90;;;;;;5102301;28;20480;-68
2023/08/08 01:44:46;;;;;;;5.47;5.27;;;12.60;99.90;;;;;;5093061;28;20465;-69
2023/08/08 01:47:14;;;;;;;4.47;4.37;;;12.60;99.90;;;;;;5095689;28;20519;-71
2023/08/08 01:49:40;;;;;;;4.70;4.60;;;12.60;99.90;;;;;;5095833;28;20928;-68
2023/08/08 01:52:08;;;;;;;5.00;4.80;;;12.60;99.90;;;;;;5098567;28;20525;-69
2023/08/08 01:54:36;;;;;;;5.47;5.27;;;12.60;99.90;;;;;;5107189;28;20460;-68
2023/08/08 01:57:03;;;;;;;5.67;5.47;;;12.60;99.90;;;;;;5098896;28;20492;-70
2023/08/08 01:59:31;;;;;;;4.97;4.77;;;12.60;99.90;;;;;;5097148;28;20493;-68
2023/08/08 02:01:58;;;;;;;5.60;5.40;;;12.60;99.90;;;;;;5108035;28;20457;-69
2023/08/08 02:04:25;;;;;;;5.43;5.20;;;12.70;99.90;;;;;;5090677;28;20465;-72
2023/08/08 02:06:52;;;;;;;4.90;4.70;;;12.70;99.90;;;;;;5091858;28;20458;-70
2023/08/08 02:09:19;;;;;;;5.13;5.03;;;12.80;99.90;;;;;;5103321;28;20488;-69
2023/08/08 02:11:46;;;;;;;6.60;6.30;;;12.80;99.90;;;;;;5095026;27;20461;-71
2023/08/08 02:14:13;;;;;;;5.33;5.23;;;12.80;99.90;;;;;;5098360;28;20453;-69
2023/08/08 02:16:42;;;;;;;5.60;5.40;;;12.80;99.90;;;;;;5111144;28;20476;-69
2023/08/08 02:19:09;;;;;;;5.17;4.70;;;12.90;99.90;;;;;;5103906;28;20480;-72
2023/08/08 02:21:35;;;;;;;5.47;5.17;;;12.90;99.90;;;;;;5098380;28;20454;-69
2023/08/08 02:24:04;;;;;;;5.47;5.23;;;12.90;99.90;;;;;;5103545;28;20465;-68
2023/08/08 02:26:30;;;;;;;5.33;5.13;;;12.80;99.90;;;;;;5091234;28;20458;-68
2023/08/08 02:28:57;;;;;;;4.47;4.37;;;12.80;99.90;;;;;;5104484;28;20477;-69
2023/08/08 02:31:26;;;;;;;5.97;5.57;;;12.80;99.90;;;;;;5102085;28;20678;-68
2023/08/08 02:33:56;;;;;;;5.53;5.13;;;12.80;99.90;;;;;;5098272;28;20598;-68
2023/08/08 02:36:22;;;;;;;4.40;4.30;;;12.70;99.90;;;;;;5096676;28;20468;-69
2023/08/08 02:38:53;;;;;;;4.83;4.63;;;12.70;99.90;;;;;;5105090;28;20496;-72
2023/08/08 02:41:20;;;;;;;4.90;4.60;;;12.70;99.90;;;;;;5088851;28;20494;-69
2023/08/08 02:43:47;;;;;;;5.17;4.97;;;12.70;99.90;;;;;;5097502;28;20504;-72
2023/08/08 02:46:14;;;;;;;5.27;5.07;;;12.70;99.90;;;;;;5110378;28;20457;-69
2023/08/08 02:48:41;;;;;;;4.10;4.00;;;12.70;99.90;;;;;;5107178;28;20445;-70
2023/08/08 02:51:10;;;;;;;4.43;4.33;;;12.70;99.90;;;;;;5104125;28;20468;-70
2023/08/08 02:53:37;;;;;;;4.90;4.70;;;12.60;99.90;;;;;;5096872;28;20479;-71
2023/08/08 02:56:05;;;;;;;4.50;4.40;;;12.70;99.90;;;;;;5107874;28;20457;-70
2023/08/08 02:58:32;;;;;;;5.23;5.03;;;12.60;99.90;;;;;;5091078;28;20489;-69
2023/08/08 03:00:58;;;;;;;3.87;3.77;;;12.60;99.90;;;;;;5100130;28;20924;-69
2023/08/08 03:03:25;;;;;;;3.93;3.83;;;12.60;99.90;;;;;;5101948;28;20461;-69
2023/08/08 03:05:54;;;;;;;4.03;3.90;;;12.60;99.90;;;;;;5093570;28;20457;-70
2023/08/08 03:08:22;;;;;;;4.60;4.30;;;12.60;99.90;;;;;;5102115;28;20494;-71
2023/08/08 03:10:49;;;;;;;4.13;3.93;;;12.60;99.90;;;;;;5092968;28;20461;-68
2023/08/08 03:13:16;;;;;;;3.30;3.20;;;12.60;99.90;;;;;;5100825;28;20458;-70
2023/08/08 03:15:43;;;;;;;4.03;3.83;;;12.60;99.90;;;;;;5101401;28;20485;-72
2023/08/08 03:18:09;;;;;;;4.70;3.70;;;12.50;99.90;;;;;;5095147;28;20486;-69
2023/08/08 03:20:37;;;;;;;3.73;3.53;;;12.50;99.90;;;;;;5092030;28;20442;-69
2023/08/08 03:23:04;;;;;;;4.43;4.03;;;12.50;99.90;;;;;;5103749;27;20461;-68
2023/08/08 03:25:32;;;;;;;2.87;2.77;;;12.50;99.90;;;;;;5094191;28;20474;-70
2023/08/08 03:27:59;;;;;;;3.57;3.27;;;12.50;99.90;;;;;;5093547;28;20853;-69
2023/08/08 03:30:26;;;;;;;3.20;3.00;;;12.50;99.90;;;;;;5108007;28;20454;-69
2023/08/08 03:32:54;;;;;;;4.70;3.10;;;12.50;99.90;;;;;;5094823;28;20462;-69
2023/08/08 03:35:21;;;;;;;3.27;3.17;;;12.50;99.90;;;;;;5097123;28;20464;-69
2023/08/08 03:37:49;;;;;;;3.20;2.97;;;12.50;99.90;;;;;;5101889;28;20835;-71
2023/08/08 03:40:16;;;;;;;4.47;4.07;;;12.40;99.90;;;;;;5098427;28;20454;-69
2023/08/08 03:42:45;;;;;;;3.37;3.17;;;12.40;99.90;;;;;;5102139;28;20458;-71
2023/08/08 03:45:13;;;;;;;3.10;2.90;;;12.50;99.90;;;;;;5096018;28;20473;-72
2023/08/08 03:47:39;;;;;;;2.30;2.20;;;12.50;99.90;;;;;;5110666;27;20457;-69
2023/08/08 03:50:08;;;;;;;3.10;3.00;;;12.50;99.90;;;;;;5099905;28;20937;-69
2023/08/08 03:52:37;;;;;;;4.07;3.60;;;12.60;99.90;;;;;;5087909;28;20537;-70
2023/08/08 03:55:04;;;;;;;7.13;2.40;;;12.60;99.90;;;;;;5090129;28;20561;-69
2023/08/08 03:57:34;;;;;;;5.27;3.33;;;12.70;99.90;;;;;;5101412;28;20460;-72
2023/08/08 04:00:03;;;;;;;2.70;2.50;;;12.70;99.90;;;;;;5096345;28;20496;-69
2023/08/08 04:02:30;;;;;;;19.77;3.80;;;12.80;99.90;;;;;;5094934;28;20461;-69
2023/08/08 04:04:57;;;;;;;7.13;2.20;;;12.90;99.90;;;;;;5100975;28;20987;-69
2023/08/08 04:07:24;;;;;;;2.90;2.63;;;12.90;99.90;;;;;;5093805;28;20464;-69
2023/08/08 04:09:52;;;;;;;3.87;3.63;;;13.00;99.90;;;;;;5090217;28;20486;-69
2023/08/08 04:12:18;;;;;;;2.33;2.23;;;13.00;99.90;;;;;;5092473;28;21033;-72
2023/08/08 04:14:45;;;;;;;2.40;2.30;;;13.10;99.90;;;;;;5107745;28;20460;-69
2023/08/08 04:17:13;;;;;;;5.93;3.13;;;13.10;99.90;;;;;;5107909;28;20481;-69
2023/08/08 04:19:41;;;;;;;2.00;1.90;;;13.10;99.90;;;;;;5092829;28;20481;-68
2023/08/08 04:22:09;;;;;;;6.67;3.97;;;13.20;99.90;;;;;;5095703;28;20473;-68
2023/08/08 04:24:38;;;;;;;6.63;6.20;;;13.20;99.90;;;;;;5099514;28;21062;-70
2023/08/08 04:27:06;;;;;;;2.73;2.63;;;13.30;99.90;;;;;;5093196;28;20545;-68
2023/08/08 04:29:33;;;;;;;3.07;2.87;;;13.30;99.90;;;;;;5095478;28;20466;-69
2023/08/08 04:32:00;;;;;;;6.93;4.40;;;13.40;99.90;;;;;;5103154;28;20453;-69
2023/08/08 04:34:28;;;;;;;3.33;3.23;;;13.40;99.90;;;;;;5095714;28;20469;-69
2023/08/08 04:36:55;;;;;;;3.83;3.53;;;13.50;99.90;;;;;;5099944;28;20480;-70
2023/08/08 04:39:22;;;;;;;2.83;2.73;;;13.60;99.90;;;;;;5088999;28;20494;-70
2023/08/08 04:41:49;;;;;;;4.90;2.80;;;13.70;99.90;;;;;;5098461;28;20458;-69
2023/08/08 04:44:16;;;;;;;5.63;4.20;;;13.70;99.90;;;;;;5089722;28;20863;-69
2023/08/08 04:46:43;;;;;;;2.73;2.63;;;13.90;99.90;;;;;;5099415;28;20462;-71
2023/08/08 04:49:11;;;;;;;8.93;5.33;;;13.90;99.90;;;;;;5092735;28;20465;-69
2023/08/08 04:51:40;;;;;;;4.13;3.93;;;14.00;99.90;;;;;;5098874;28;20458;-70
2023/08/08 04:54:08;;;;;;;6.03;4.50;;;14.00;99.90;;;;;;5097947;28;20458;-69
2023/08/08 04:56:35;;;;;;;3.03;2.93;;;13.90;99.90;;;;;;5099637;28;20454;-69
2023/08/08 04:59:04;;;;;;;3.10;3.00;;;13.90;99.90;;;;;;5104797;28;20489;-69
2023/08/08 05:01:31;;;;;;;4.63;4.33;;;14.00;99.90;;;;;;5096405;28;20489;-69
2023/08/08 05:03:58;;;;;;;6.43;5.07;;;14.10;99.90;;;;;;5087091;28;20461;-69
2023/08/08 05:06:25;;;;;;;4.43;4.20;;;14.10;99.90;;;;;;5086906;28;20473;-70
2023/08/08 05:08:54;;;;;;;3.87;3.73;;;14.10;99.90;;;;;;5087333;28;20490;-70
2023/08/08 05:11:20;;;;;;;4.30;4.10;;;14.10;99.90;;;;;;5088897;28;20476;-69
2023/08/08 05:13:48;;;;;;;5.83;5.30;;;14.10;99.90;;;;;;5098481;28;20445;-70
2023/08/08 05:16:15;;;;;;;4.20;4.10;;;14.20;99.90;;;;;;5101671;28;20567;-69
2023/08/08 05:18:45;;;;;;;3.90;3.80;;;14.20;99.90;;;;;;5093550;28;20489;-68
2023/08/08 05:21:12;;;;;;;5.03;4.80;;;14.30;99.90;;;;;;5085982;28;20533;-69
2023/08/08 05:23:39;;;;;;;7.37;6.23;;;14.30;99.90;;;;;;5093228;28;20476;-71
2023/08/08 05:26:07;;;;;;;5.43;5.20;;;14.40;99.90;;;;;;5090875;28;20450;-71
2023/08/08 05:28:34;;;;;;;7.20;6.60;;;14.40;99.90;;;;;;5094001;28;20462;-69
2023/08/08 05:31:01;;;;;;;6.07;5.60;;;14.50;99.90;;;;;;5095514;28;20514;-70
2023/08/08 05:33:29;;;;;;;6.50;5.43;;;14.50;99.90;;;;;;5088949;28;20499;-70
2023/08/08 05:35:55;;;;;;;4.90;4.70;;;14.60;99.90;;;;;;5097948;28;20869;-70
2023/08/08 05:38:22;;;;;;;5.87;5.57;;;14.60;99.90;;;;;;5089848;28;20473;-70
2023/08/08 05:40:49;;;;;;;6.37;5.97;;;14.60;99.90;;;;;;5093244;28;20520;-70
2023/08/08 05:43:18;;;;;;;6.73;6.43;;;14.60;99.90;;;;;;5104062;28;20445;-72
2023/08/08 05:45:45;;;;;;;6.57;6.27;;;14.70;99.90;;;;;;5101799;28;20453;-69
2023/08/08 05:48:12;;;;;;;6.17;5.97;;;14.70;99.90;;;;;;5096558;28;20546;-69
2023/08/08 05:50:39;;;;;;;6.93;6.63;;;14.80;99.90;;;;;;5089112;28;20472;-73
2023/08/08 05:53:07;;;;;;;7.37;6.93;;;14.80;99.90;;;;;;5103570;28;20450;-70
2023/08/08 05:55:34;;;;;;;9.53;8.90;;;14.90;99.90;;;;;;5102328;28;20466;-68
2023/08/08 05:58:02;;;;;;;7.03;6.83;;;14.90;99.90;;;;;;5096387;28;20449;-69
2023/08/08 06:00:31;;;;;;;9.03;8.33;;;14.90;99.90;;;;;;5100942;27;20972;-70
2023/08/08 06:02:58;;;;;;;7.13;6.73;;;14.90;99.90;;;;;;5093558;28;20498;-68
2023/08/08 06:05:25;;;;;;;8.00;7.50;;;15.00;99.90;;;;;;5091217;28;20465;-68
2023/08/08 06:07:52;;;;;;;7.97;7.67;;;15.00;99.90;;;;;;5091131;28;20827;-71
2023/08/08 06:10:19;;;;;;;9.33;8.53;;;15.00;99.90;;;;;;5100737;28;20462;-72
2023/08/08 06:12:45;;;;;;;8.97;8.40;;;15.00;99.90;;;;;;5102602;28;20460;-68
2023/08/08 06:15:12;;;;;;;9.77;9.10;;;15.00;99.90;;;;;;5091215;28;20468;-69
2023/08/08 06:17:40;;;;;;;8.67;8.27;;;15.00;99.90;;;;;;5099401;28;20552;-72
2023/08/08 06:20:09;;;;;;;8.70;8.20;;;15.20;99.90;;;;;;5094522;28;20485;-69
2023/08/08 06:22:37;;;;;;;9.03;8.73;;;15.20;99.90;;;;;;5094175;28;20501;-70
2023/08/08 06:25:07;;;;;;;9.33;8.70;;;15.40;99.90;;;;;;5093566;28;20519;-71
2023/08/08 06:27:34;;;;;;;9.77;9.37;;;15.40;99.90;;;;;;5100669;28;20497;-69
2023/08/08 06:30:02;;;;;;;11.80;10.40;;;15.50;99.90;;;;;;5092076;28;20960;-69
2023/08/08 06:32:29;;;;;;;9.60;9.20;;;15.30;99.90;;;;;;5097845;28;20465;-70
2023/08/08 06:34:58;;;;;;;9.63;9.00;;;15.30;99.90;;;;;;5097449;28;20497;-69
2023/08/08 06:37:24;;;;;;;8.73;8.43;;;15.30;99.90;;;;;;5095036;28;20456;-68
2023/08/08 06:39:51;;;;;;;10.97;10.50;;;15.30;99.90;;;;;;5095825;28;20702;-69
2023/08/08 06:42:18;;;;;;;8.53;8.23;;;15.40;99.90;;;;;;5094298;28;20469;-68
2023/08/08 06:44:45;;;;;;;9.53;9.13;;;15.40;99.90;;;;;;5097641;28;20710;-68
2023/08/08 06:47:13;;;;;;;10.27;9.37;;;15.50;99.90;;;;;;5100321;28;20450;-68
2023/08/08 06:49:41;;;;;;;9.77;9.27;;;15.60;99.90;;;;;;5101121;28;20984;-68
2023/08/08 06:52:09;;;;;;;9.17;8.77;;;15.50;99.90;;;;;;5101606;28;20831;-69
2023/08/08 06:54:36;;;;;;;10.13;9.70;;;15.60;99.90;;;;;;5089602;28;20462;-69
2023/08/08 06:57:04;;;;;;;12.00;11.07;;;15.60;99.90;;;;;;5102040;28;20460;-68
2023/08/08 06:59:30;;;;;;;12.97;10.03;;;15.70;99.90;;;;;;5094398;28;20481;-68
2023/08/08 07:01:57;;;;;;;10.67;10.20;;;15.80;99.90;;;;;;5098047;28;20465;-68
2023/08/08 07:04:24;;;;;;;11.37;10.77;;;16.00;99.90;;;;;;5093731;28;20465;-70
2023/08/08 07:06:51;;;;;;;26.20;11.60;;;16.30;99.90;;;;;;5090883;28;20542;-68
2023/08/08 07:09:19;;;;;;;11.80;10.90;;;16.30;99.90;;;;;;5097112;28;21216;-69
2023/08/08 07:11:46;;;;;;;12.27;11.57;;;16.30;99.90;;;;;;5096409;28;20469;-68
2023/08/08 07:14:13;;;;;;;12.17;11.47;;;16.40;99.90;;;;;;5097470;28;20453;-70
2023/08/08 07:16:40;;;;;;;12.30;11.60;;;16.40;99.90;;;;;;5095408;28;20494;-70
2023/08/08 07:19:07;;;;;;;12.47;11.87;;;16.40;99.90;;;;;;5103614;28;20461;-69
2023/08/08 07:21:34;;;;;;;14.80;13.90;;;16.40;99.90;;;;;;5097904;28;20458;-68
2023/08/08 07:24:02;;;;;;;18.67;12.60;;;16.50;99.90;;;;;;5097191;28;20456;-68
2023/08/08 07:26:31;;;;;;;12.70;11.70;;;16.70;99.90;;;;;;5104524;28;20989;-68
2023/08/08 07:28:59;;;;;;;13.40;12.63;;;17.00;99.90;;;;;;5093391;28;20461;-71
2023/08/08 07:31:25;;;;;;;12.30;11.80;;;17.10;99.90;;;;;;5097254;28;20461;-68
2023/08/08 07:33:52;;;;;;;12.23;11.73;;;17.10;99.90;;;;;;5097686;28;20458;-71
2023/08/08 07:36:19;;;;;;;15.30;14.20;;;17.30;99.90;;;;;;5097548;28;20477;-71
2023/08/08 07:38:46;;;;;;;14.63;13.63;;;17.40;99.90;;;;;;5092679;28;20461;-68
2023/08/08 07:41:13;;;;;;;15.37;13.90;;;17.40;99.90;;;;;;5094738;28;20493;-70
2023/08/08 07:43:41;;;;;;;15.47;14.30;;;17.40;99.90;;;;;;5101114;28;20461;-68
2023/08/08 07:46:08;;;;;;;13.07;12.40;;;17.40;99.90;;;;;;5094851;28;20458;-68
2023/08/08 07:48:35;;;;;;;13.47;12.87;;;17.40;99.90;;;;;;5090279;28;20477;-68
2023/08/08 07:51:03;;;;;;;14.10;13.20;;;17.50;99.90;;;;;;5096048;28;20465;-70
2023/08/08 07:53:29;;;;;;;14.67;13.80;;;17.60;99.90;;;;;;5089001;27;20545;-68
2023/08/08 07:55:56;;;;;;;14.33;13.20;;;17.80;99.90;;;;;;5100780;28;20963;-68
2023/08/08 07:58:25;;;;;;;13.90;13.20;;;17.60;99.90;;;;;;5090920;28;20494;-71
2023/08/08 08:00:54;;;;;;;13.17;12.50;;;17.30;99.90;;;;;;5089866;27;20496;-70
2023/08/08 08:03:21;;;;;;;13.67;12.70;;;17.20;99.90;;;;;;5097399;27;20460;-70
2023/08/08 08:05:48;;;;;;;12.33;11.80;;;17.00;99.90;;;;;;5097696;27;20468;-68
2023/08/08 08:08:15;;;;;;;12.20;11.70;;;16.90;99.90;;;;;;5091621;28;20486;-68
2023/08/08 08:10:42;;;;;;;13.17;12.43;;;16.90;99.90;;;;;;5093745;28;20460;-69
2023/08/08 08:13:10;;;;;;;13.93;12.80;;;16.90;99.90;;;;;;5094398;28;20556;-68
2023/08/08 08:15:37;;;;;;;12.07;11.57;;;16.90;99.90;;;;;;5085844;28;20484;-70
2023/08/08 08:18:05;;;;;;;13.37;12.00;;;16.80;99.90;;;;;;5092210;28;20540;-68
2023/08/08 08:20:32;;;;;;;11.20;10.73;;;16.90;99.90;;;;;;5094770;28;20492;-69
2023/08/08 08:22:59;;;;;;;22.90;21.00;;;16.70;99.90;;;;;;5090930;28;20474;-68
2023/08/08 08:25:26;;;;;;;22.53;20.77;;;16.60;99.90;;;;;;5089273;28;20458;-69
2023/08/08 08:27:53;;;;;;;21.10;19.50;;;16.20;99.90;;;;;;5088405;28;20535;-70
2023/08/08 08:30:20;;;;;;;20.77;19.27;;;15.90;99.90;;;;;;5096312;28;20450;-70
2023/08/08 08:32:47;;;;;;;20.37;18.87;;;15.70;99.90;;;;;;5091596;28;20524;-69
2023/08/08 08:35:16;;;;;;;18.80;17.60;;;15.40;99.90;;;;;;5095291;28;21014;-72
2023/08/08 08:37:43;;;;;;;19.30;18.10;;;15.30;99.90;;;;;;5091528;28;21127;-70
2023/08/08 08:40:10;;;;;;;18.87;17.60;;;15.20;99.90;;;;;;5094594;28;20918;-71
2023/08/08 08:42:39;;;;;;;17.90;16.80;;;15.10;99.90;;;;;;5094303;28;20473;-71
2023/08/08 08:45:09;;;;;;;18.13;17.03;;;15.00;99.90;;;;;;5088779;28;21010;-71
2023/08/08 08:47:38;;;;;;;16.87;15.97;;;15.00;99.90;;;;;;5095132;28;20544;-71
2023/08/08 08:50:06;;;;;;;16.30;15.40;;;14.90;99.90;;;;;;5093941;28;20474;-72
2023/08/08 08:52:34;;;;;;;16.17;15.37;;;14.90;99.90;;;;;;5093404;28;20470;-71
2023/08/08 08:55:02;;;;;;;14.83;14.10;;;15.00;99.90;;;;;;5092852;28;20860;-71
2023/08/08 08:57:30;;;;;;;14.40;13.70;;;15.20;99.90;;;;;;5090844;28;20458;-70
2023/08/08 08:59:56;;;;;;;14.20;13.60;;;15.10;99.90;;;;;;5092116;28;20913;-71
2023/08/08 09:02:24;;;;;;;14.00;13.40;;;15.20;99.90;;;;;;5096783;28;20461;-70
2023/08/08 09:04:53;;;;;;;14.87;14.17;;;15.20;99.90;;;;;;5094543;28;20561;-69
2023/08/08 09:07:24;;;;;;;13.60;12.77;;;15.30;99.90;;;;;;5093273;28;20509;-71
2023/08/08 09:09:54;;;;;;;13.67;13.07;;;15.40;99.90;;;;;;5087805;28;20867;-70
2023/08/08 09:12:21;;;;;;;14.20;13.20;;;15.50;99.90;;;;;;5088483;28;21021;-70
2023/08/08 09:14:50;;;;;;;14.07;12.93;;;15.70;99.90;;;;;;5096984;28;20465;-70
2023/08/08 09:17:17;;;;;;;12.13;11.63;;;15.80;99.90;;;;;;5089415;28;20909;-70
2023/08/08 09:19:44;;;;;;;10.27;9.87;;;16.10;99.90;;;;;;5093294;28;20462;-68
2023/08/08 09:22:12;;;;;;;14.20;13.40;;;16.60;99.90;;;;;;5091178;28;20827;-69
2023/08/08 09:24:41;;;;;;;11.27;10.57;;;16.70;99.90;;;;;;5086714;28;20471;-69
2023/08/08 09:27:10;;;;;;;10.83;10.00;;;16.80;99.90;;;;;;5090619;28;20536;-69
2023/08/08 09:29:38;;;;;;;14.13;13.00;;;17.10;99.90;;;;;;5090125;28;20474;-71
2023/08/08 09:32:06;;;;;;;11.17;10.67;;;17.10;99.90;;;;;;5094309;28;20970;-69
2023/08/08 09:34:33;;;;;;;13.07;12.37;;;17.20;99.90;;;;;;5085274;28;20484;-70
2023/08/08 09:37:00;;;;;;;13.70;12.70;;;17.30;99.90;;;;;;5093257;28;20924;-69
2023/08/08 09:39:27;;;;;;;13.43;12.73;;;17.30;99.90;;;;;;5093889;28;20583;-69
2023/08/08 09:41:54;;;;;;;14.30;13.43;;;17.20;99.90;;;;;;5097253;28;21069;-70
2023/08/08 09:44:29;;;;;;;14.40;13.70;;;17.20;99.90;;;;;;5092871;28;20462;-70
2023/08/08 09:46:56;;;;;;;16.20;15.10;;;17.10;99.90;;;;;;5101568;28;20508;-70
2023/08/08 09:49:24;;;;;;;17.33;15.90;;;17.10;99.90;;;;;;5091814;28;20454;-70
2023/08/08 09:51:51;;;;;;;14.77;13.87;;;17.00;99.90;;;;;;5090730;28;20469;-69
2023/08/08 09:54:19;;;;;;;15.80;14.70;;;17.00;99.90;;;;;;5092520;28;20457;-71
2023/08/08 09:56:46;;;;;;;17.03;15.30;;;17.00;99.90;;;;;;5088361;28;20804;-70
2023/08/08 09:59:14;;;;;;;13.77;13.07;;;17.10;99.90;;;;;;5092067;28;20454;-69
2023/08/08 10:01:43;;;;;;;14.93;14.13;;;17.20;99.90;;;;;;5098005;28;20825;-70
2023/08/08 10:04:14;;;;;;;15.20;14.30;;;17.10;99.90;;;;;;5094745;28;20480;-71
2023/08/08 10:06:41;;;;;;;13.80;13.00;;;17.20;99.90;;;;;;5094411;28;20465;-69
2023/08/08 10:09:09;;;;;;;12.40;11.87;;;17.20;99.90;;;;;;5094712;28;20470;-70
2023/08/08 10:11:36;;;;;;;12.50;12.00;;;17.20;99.90;;;;;;5089386;28;20465;-70
2023/08/08 10:14:04;;;;;;;13.50;12.90;;;17.30;99.90;;;;;;5091243;28;20461;-69
2023/08/08 10:16:35;;;;;;;12.93;12.13;;;17.40;99.90;;;;;;5095844;28;20491;-69
2023/08/08 10:19:05;;;;;;;13.90;13.10;;;17.60;99.90;;;;;;5102071;28;20469;-69
2023/08/08 10:21:34;;;;;;;13.63;12.93;;;17.70;99.90;;;;;;5090843;28;20498;-70
2023/08/08 10:24:05;;;;;;;12.70;12.20;;;17.70;99.90;;;;;;5096190;28;20469;-69
2023/08/08 10:26:32;;;;;;;13.40;12.80;;;17.60;99.90;;;;;;5092087;28;20465;-69
2023/08/08 10:29:00;;;;;;;14.00;13.03;;;17.90;99.90;;;;;;5100881;28;20469;-70
2023/08/08 10:31:33;;;;;;;15.83;14.33;;;18.10;99.90;;;;;;5092365;28;20472;-69
2023/08/08 10:34:05;;;;;;;13.27;12.77;;;18.10;99.90;;;;;;5094488;28;20489;-69
2023/08/08 10:36:50;;;;;;;14.23;13.63;;;18.00;99.90;;;;;;5094512;28;20493;-68
2023/08/08 10:39:18;;;;;;;14.73;13.93;;;17.90;99.90;;;;;;5096717;28;20536;-70
2023/08/08 10:41:47;;;;;;;16.43;15.13;;;18.10;99.90;;;;;;5092734;28;20474;-71
2023/08/08 10:44:15;;;;;;;16.57;15.60;;;18.40;99.90;;;;;;5088547;28;20490;-70
2023/08/08 10:46:41;;;;;;;15.77;14.87;;;18.30;99.90;;;;;;5090196;28;20522;-69
2023/08/08 10:49:14;;;;;;;15.00;14.07;;;18.20;99.90;;;;;;5092989;28;20457;-69
2023/08/08 10:51:46;;;;;;;13.80;13.20;;;18.00;99.90;;;;;;5100694;28;20986;-69
2023/08/08 10:54:14;;;;;;;14.90;14.00;;;17.90;99.90;;;;;;5096895;28;20454;-71
2023/08/08 10:56:48;;;;;;;13.70;13.10;;;17.80;99.90;;;;;;5094420;28;20956;-71
2023/08/08 10:59:17;;;;;;;13.20;12.70;;;17.50;99.90;;;;;;5103544;28;20971;-69
2023/08/08 11:01:47;;;;;;;13.10;12.50;;;17.20;99.90;;;;;;5093534;28;20577;-70
2023/08/08 11:04:18;;;;;;;12.43;11.93;;;17.00;99.90;;;;;;5101391;28;20458;-70
2023/08/08 11:06:46;;;;;;;12.30;11.80;;;16.90;99.90;;;;;;5100115;28;21196;-70
2023/08/08 11:09:14;;;;;;;12.53;12.03;;;17.00;99.90;;;;;;5088809;28;20569;-69
2023/08/08 11:11:43;;;;;;;14.87;14.13;;;17.00;99.90;;;;;;5096532;28;20457;-67
2023/08/08 11:14:13;;;;;;;14.70;13.97;;;16.80;99.90;;;;;;5095537;28;20457;-68
2023/08/08 11:16:40;;;;;;;15.03;14.17;;;16.60;99.90;;;;;;5090764;28;20876;-70
2023/08/08 11:19:06;;;;;;;19.93;18.27;;;16.40;99.90;;;;;;5098756;28;20675;-67
2023/08/08 11:21:40;;;;;;;18.10;17.00;;;16.30;99.90;;;;;;5098127;28;20480;-69
2023/08/08 11:24:09;;;;;;;19.70;18.40;;;16.20;99.90;;;;;;5091136;28;20840;-70
2023/08/08 11:26:37;;;;;;;18.50;17.30;;;15.90;99.90;;;;;;5089317;28;20487;-70
2023/08/08 11:29:06;;;;;;;18.57;17.40;;;15.80;99.90;;;;;;5095514;28;20462;-69
2023/08/08 11:31:35;;;;;;;16.37;15.47;;;15.70;99.90;;;;;;5099024;28;20828;-70
2023/08/08 11:34:05;;;;;;;16.90;15.50;;;15.70;99.90;;;;;;5096442;28;20903;-70
2023/08/08 11:36:33;;;;;;;15.43;14.63;;;15.80;99.90;;;;;;5091664;28;20480;-70
2023/08/08 11:39:07;;;;;;;15.37;14.57;;;15.80;99.90;;;;;;5095324;27;20553;-68
2023/08/08 11:41:36;;;;;;;15.33;14.53;;;15.90;99.90;;;;;;5093252;28;20509;-70
2023/08/08 11:44:03;;;;;;;15.30;14.50;;;15.90;99.90;;;;;;5099472;28;20493;-69
2023/08/08 11:46:31;;;;;;;15.97;15.10;;;15.90;99.90;;;;;;5093660;28;20465;-68
2023/08/08 11:49:04;;;;;;;15.80;15.00;;;15.90;99.90;;;;;;5098413;28;20457;-68
2023/08/08 11:51:30;;;;;;;16.73;15.63;;;15.70;99.90;;;;;;5089368;28;20454;-69
2023/08/08 11:54:00;;;;;;;14.93;14.13;;;15.40;99.90;;;;;;5094619;28;20453;-70
2023/08/08 11:56:29;;;;;;;16.43;14.73;;;15.30;99.90;;;;;;5095402;28;20454;-70
2023/08/08 11:58:56;;;;;;;15.40;14.50;;;15.00;99.90;;;;;;5095285;28;20470;-69
2023/08/08 12:01:25;;;;;;;14.77;13.97;;;14.90;99.90;;;;;;5089626;28;20516;-71
2023/08/08 12:03:53;;;;;;;14.33;13.63;;;14.80;99.90;;;;;;5092943;28;20987;-70
2023/08/08 12:06:21;;;;;;;12.90;12.20;;;14.70;99.90;;;;;;5096551;28;20559;-69
2023/08/08 12:08:50;;;;;;;11.60;11.10;;;14.80;99.90;;;;;;5091595;28;20485;-70
2023/08/08 12:11:17;;;;;;;11.80;11.30;;;14.80;99.90;;;;;;5093969;28;20480;-70
2023/08/08 12:13:46;;;;;;;12.80;12.20;;;15.10;99.90;;;;;;5091217;28;20900;-69
2023/08/08 12:16:14;;;;;;;12.33;11.83;;;15.30;99.90;;;;;;5100305;28;20488;-71
2023/08/08 12:18:43;;;;;;;12.17;11.67;;;15.60;99.90;;;;;;5096993;28;20458;-71
2023/08/08 12:21:10;;;;;;;11.70;11.20;;;15.70;99.90;;;;;;5092051;28;20485;-69
2023/08/08 12:23:38;;;;;;;11.70;11.20;;;15.80;99.90;;;;;;5092126;28;20485;-69
2023/08/08 12:26:08;;;;;;;10.87;10.43;;;15.90;99.90;;;;;;5092330;28;20730;-70
2023/08/08 12:28:35;;;;;;;10.97;10.57;;;16.20;99.90;;;;;;5087211;28;20461;-71
2023/08/08 12:31:03;;;;;;;10.30;9.90;;;16.40;99.90;;;;;;5102573;28;20501;-71
2023/08/08 12:33:31;;;;;;;10.10;9.70;;;16.60;99.90;;;;;;5089305;28;20462;-70
2023/08/08 12:35:58;;;;;;;10.57;9.97;;;16.80;99.90;;;;;;5089821;28;20797;-68
2023/08/08 12:38:25;;;;;;;9.60;9.20;;;17.00;99.90;;;;;;5090903;28;20461;-69
2023/08/08 12:40:52;;;;;;;11.50;10.90;;;17.60;99.90;;;;;;5091754;28;20457;-71